sensor_id;sensor_type;location;lat;lon;timestamp;P1;durP1;ratioP1;P2;durP2;ratioP2
20739;SDS011;10530;49.968;19.844;2023-04-24T00:02:31;8.05;;;3.78;;
20739;SDS011;10530;49.968;19.844;2023-04-24T00:07:34;8.60;;;3.75;;
20739;SDS011;10530;49.968;19.844;2023-04-24T00:12:37;9.20;;;4.10;;
20739;SDS011;10530;49.968;19.844;2023-04-24T00:17:40;8.77;;;4.13;;
20739;SDS011;10530;49.968;19.844;2023-04-24T00:22:43;9.02;;;4.15;;
20739;SDS011;10530;49.968;19.844;2023-04-24T00:27:46;9.27;;;3.92;;
20739;SDS011;10530;49.968;19.844;2023-04-24T00:32:49;9.70;;;4.18;;
20739;SDS011;10530;49.968;19.844;2023-04-24T00:37:52;10.07;;;3.63;;
20739;SDS011;10530;49.968;19.844;2023-04-24T00:42:55;10.48;;;3.72;;
20739;SDS011;10530;49.968;19.844;2023-04-24T00:47:58;11.57;;;4.43;;
20739;SDS011;10530;49.968;19.844;2023-04-24T00:53:03;8.73;;;4.15;;
20739;SDS011;10530;49.968;19.844;2023-04-24T00:58:06;7.75;;;3.63;;
20739;SDS011;10530;49.968;19.844;2023-04-24T01:03:09;7.73;;;4.00;;
20739;SDS011;10530;49.968;19.844;2023-04-24T01:08:13;8.77;;;3.95;;
20739;SDS011;10530;49.968;19.844;2023-04-24T01:13:17;9.02;;;3.88;;
20739;SDS011;10530;49.968;19.844;2023-04-24T01:18:20;9.60;;;4.00;;
20739;SDS011;10530;49.968;19.844;2023-04-24T01:23:25;8.10;;;3.45;;
20739;SDS011;10530;49.968;19.844;2023-04-24T01:28:28;8.40;;;3.50;;
20739;SDS011;10530;49.968;19.844;2023-04-24T01:33:31;7.72;;;3.72;;
20739;SDS011;10530;49.968;19.844;2023-04-24T01:38:35;10.50;;;4.07;;
20739;SDS011;10530;49.968;19.844;2023-04-24T01:43:37;10.48;;;4.13;;
20739;SDS011;10530;49.968;19.844;2023-04-24T01:48:41;9.43;;;4.18;;
20739;SDS011;10530;49.968;19.844;2023-04-24T01:53:43;9.10;;;4.40;;
20739;SDS011;10530;49.968;19.844;2023-04-24T01:58:46;7.90;;;3.83;;
20739;SDS011;10530;49.968;19.844;2023-04-24T02:03:50;7.68;;;3.42;;
20739;SDS011;10530;49.968;19.844;2023-04-24T02:08:53;8.10;;;3.47;;
20739;SDS011;10530;49.968;19.844;2023-04-24T02:13:56;10.00;;;3.78;;
20739;SDS011;10530;49.968;19.844;2023-04-24T02:19:00;11.53;;;3.70;;
20739;SDS011;10530;49.968;19.844;2023-04-24T02:24:02;8.25;;;3.80;;
20739;SDS011;10530;49.968;19.844;2023-04-24T02:29:05;9.25;;;3.72;;
20739;SDS011;10530;49.968;19.844;2023-04-24T02:34:08;9.27;;;3.50;;
20739;SDS011;10530;49.968;19.844;2023-04-24T02:39:11;7.47;;;3.95;;
20739;SDS011;10530;49.968;19.844;2023-04-24T02:44:15;8.10;;;3.63;;
20739;SDS011;10530;49.968;19.844;2023-04-24T02:49:19;8.73;;;3.63;;
20739;SDS011;10530;49.968;19.844;2023-04-24T02:54:22;7.47;;;3.28;;
20739;SDS011;10530;49.968;19.844;2023-04-24T02:59:25;7.63;;;3.42;;
20739;SDS011;10530;49.968;19.844;2023-04-24T03:04:29;8.55;;;3.83;;
20739;SDS011;10530;49.968;19.844;2023-04-24T03:09:32;8.03;;;3.47;;
20739;SDS011;10530;49.968;19.844;2023-04-24T03:14:35;8.55;;;3.70;;
20739;SDS011;10530;49.968;19.844;2023-04-24T03:19:37;7.95;;;3.22;;
20739;SDS011;10530;49.968;19.844;2023-04-24T03:24:44;9.63;;;3.63;;
20739;SDS011;10530;49.968;19.844;2023-04-24T03:29:50;8.13;;;3.58;;
20739;SDS011;10530;49.968;19.844;2023-04-24T03:35:07;9.67;;;3.73;;
20739;SDS011;10530;49.968;19.844;2023-04-24T03:40:11;14.80;;;4.00;;
20739;SDS011;10530;49.968;19.844;2023-04-24T03:45:15;9.02;;;3.70;;
20739;SDS011;10530;49.968;19.844;2023-04-24T03:50:22;7.10;;;3.40;;
20739;SDS011;10530;49.968;19.844;2023-04-24T03:55:25;9.77;;;3.72;;
20739;SDS011;10530;49.968;19.844;2023-04-24T04:00:28;8.37;;;3.47;;
20739;SDS011;10530;49.968;19.844;2023-04-24T04:05:53;8.18;;;3.67;;
20739;SDS011;10530;49.968;19.844;2023-04-24T04:10:56;6.97;;;3.88;;
20739;SDS011;10530;49.968;19.844;2023-04-24T04:15:59;8.85;;;4.20;;
20739;SDS011;10530;49.968;19.844;2023-04-24T04:21:02;8.30;;;3.88;;
20739;SDS011;10530;49.968;19.844;2023-04-24T04:26:05;7.40;;;3.93;;
20739;SDS011;10530;49.968;19.844;2023-04-24T04:31:32;8.70;;;4.10;;
20739;SDS011;10530;49.968;19.844;2023-04-24T04:36:40;9.85;;;4.22;;
20739;SDS011;10530;49.968;19.844;2023-04-24T04:42:13;7.88;;;3.92;;
20739;SDS011;10530;49.968;19.844;2023-04-24T04:47:18;9.23;;;3.97;;
20739;SDS011;10530;49.968;19.844;2023-04-24T04:52:28;8.37;;;4.00;;
20739;SDS011;10530;49.968;19.844;2023-04-24T04:57:41;9.23;;;3.90;;
20739;SDS011;10530;49.968;19.844;2023-04-24T05:02:44;9.20;;;4.30;;
20739;SDS011;10530;49.968;19.844;2023-04-24T05:07:48;8.68;;;3.90;;
20739;SDS011;10530;49.968;19.844;2023-04-24T05:12:51;10.23;;;3.53;;
20739;SDS011;10530;49.968;19.844;2023-04-24T05:17:54;10.37;;;3.77;;
20739;SDS011;10530;49.968;19.844;2023-04-24T05:23:00;8.95;;;3.65;;
20739;SDS011;10530;49.968;19.844;2023-04-24T05:28:04;7.70;;;3.80;;
20739;SDS011;10530;49.968;19.844;2023-04-24T05:33:08;9.80;;;3.95;;
20739;SDS011;10530;49.968;19.844;2023-04-24T05:38:12;7.82;;;4.10;;
20739;SDS011;10530;49.968;19.844;2023-04-24T05:43:15;7.43;;;3.83;;
20739;SDS011;10530;49.968;19.844;2023-04-24T05:48:18;7.07;;;3.78;;
20739;SDS011;10530;49.968;19.844;2023-04-24T05:53:21;7.88;;;4.00;;
20739;SDS011;10530;49.968;19.844;2023-04-24T05:58:24;6.82;;;3.60;;
20739;SDS011;10530;49.968;19.844;2023-04-24T06:03:28;8.32;;;3.80;;
20739;SDS011;10530;49.968;19.844;2023-04-24T06:08:31;7.80;;;3.83;;
20739;SDS011;10530;49.968;19.844;2023-04-24T06:13:35;8.23;;;3.67;;
20739;SDS011;10530;49.968;19.844;2023-04-24T06:18:56;6.78;;;3.92;;
20739;SDS011;10530;49.968;19.844;2023-04-24T06:24:00;8.13;;;4.15;;
20739;SDS011;10530;49.968;19.844;2023-04-24T06:29:05;8.35;;;3.60;;
20739;SDS011;10530;49.968;19.844;2023-04-24T06:34:10;9.90;;;4.00;;
20739;SDS011;10530;49.968;19.844;2023-04-24T06:39:12;7.30;;;3.90;;
20739;SDS011;10530;49.968;19.844;2023-04-24T06:44:15;9.23;;;3.70;;
20739;SDS011;10530;49.968;19.844;2023-04-24T06:49:18;8.05;;;4.25;;
20739;SDS011;10530;49.968;19.844;2023-04-24T06:54:22;7.70;;;4.30;;
20739;SDS011;10530;49.968;19.844;2023-04-24T06:59:24;6.97;;;3.90;;
20739;SDS011;10530;49.968;19.844;2023-04-24T07:04:27;6.88;;;3.60;;
20739;SDS011;10530;49.968;19.844;2023-04-24T07:09:30;6.53;;;4.05;;
20739;SDS011;10530;49.968;19.844;2023-04-24T07:14:34;6.72;;;3.60;;
20739;SDS011;10530;49.968;19.844;2023-04-24T07:19:36;7.93;;;3.85;;
20739;SDS011;10530;49.968;19.844;2023-04-24T07:24:39;7.00;;;3.80;;
20739;SDS011;10530;49.968;19.844;2023-04-24T07:29:42;7.28;;;3.80;;
20739;SDS011;10530;49.968;19.844;2023-04-24T07:34:46;7.07;;;3.85;;
20739;SDS011;10530;49.968;19.844;2023-04-24T07:39:49;9.10;;;4.30;;
20739;SDS011;10530;49.968;19.844;2023-04-24T07:44:51;6.65;;;3.80;;
20739;SDS011;10530;49.968;19.844;2023-04-24T07:49:55;6.80;;;3.70;;
20739;SDS011;10530;49.968;19.844;2023-04-24T07:54:57;6.57;;;3.80;;
20739;SDS011;10530;49.968;19.844;2023-04-24T08:00:03;6.85;;;3.85;;
20739;SDS011;10530;49.968;19.844;2023-04-24T08:05:14;9.68;;;4.10;;
20739;SDS011;10530;49.968;19.844;2023-04-24T08:10:17;6.28;;;3.90;;
20739;SDS011;10530;49.968;19.844;2023-04-24T08:15:19;10.37;;;3.87;;
20739;SDS011;10530;49.968;19.844;2023-04-24T08:20:22;7.47;;;3.90;;
20739;SDS011;10530;49.968;19.844;2023-04-24T08:25:25;6.78;;;4.03;;
20739;SDS011;10530;49.968;19.844;2023-04-24T08:30:28;6.53;;;3.80;;
20739;SDS011;10530;49.968;19.844;2023-04-24T08:35:32;6.15;;;3.63;;
20739;SDS011;10530;49.968;19.844;2023-04-24T08:40:35;7.07;;;4.00;;
20739;SDS011;10530;49.968;19.844;2023-04-24T08:45:39;7.90;;;3.90;;
20739;SDS011;10530;49.968;19.844;2023-04-24T08:50:42;8.48;;;3.95;;
20739;SDS011;10530;49.968;19.844;2023-04-24T08:55:47;6.97;;;4.10;;
20739;SDS011;10530;49.968;19.844;2023-04-24T09:00:51;8.68;;;4.18;;
20739;SDS011;10530;49.968;19.844;2023-04-24T09:05:54;8.23;;;3.97;;
20739;SDS011;10530;49.968;19.844;2023-04-24T09:11:00;6.28;;;3.95;;
20739;SDS011;10530;49.968;19.844;2023-04-24T09:16:04;7.22;;;4.68;;
20739;SDS011;10530;49.968;19.844;2023-04-24T09:21:08;8.50;;;4.10;;
20739;SDS011;10530;49.968;19.844;2023-04-24T09:26:11;7.93;;;3.92;;
20739;SDS011;10530;49.968;19.844;2023-04-24T09:31:18;9.40;;;4.17;;
20739;SDS011;10530;49.968;19.844;2023-04-24T09:36:27;6.88;;;3.67;;
20739;SDS011;10530;49.968;19.844;2023-04-24T09:41:31;5.22;;;3.40;;
20739;SDS011;10530;49.968;19.844;2023-04-24T09:46:35;7.20;;;3.63;;
20739;SDS011;10530;49.968;19.844;2023-04-24T09:51:38;7.93;;;3.20;;
20739;SDS011;10530;49.968;19.844;2023-04-24T09:56:43;5.63;;;3.73;;
20739;SDS011;10530;49.968;19.844;2023-04-24T10:01:47;7.90;;;3.65;;
20739;SDS011;10530;49.968;19.844;2023-04-24T10:06:53;6.78;;;3.90;;
20739;SDS011;10530;49.968;19.844;2023-04-24T10:11:59;6.03;;;3.80;;
20739;SDS011;10530;49.968;19.844;2023-04-24T10:17:04;7.65;;;4.20;;
20739;SDS011;10530;49.968;19.844;2023-04-24T10:22:08;8.13;;;3.57;;
20739;SDS011;10530;49.968;19.844;2023-04-24T10:27:12;6.75;;;4.20;;
20739;SDS011;10530;49.968;19.844;2023-04-24T10:32:17;6.75;;;3.70;;
20739;SDS011;10530;49.968;19.844;2023-04-24T10:37:20;6.85;;;3.90;;
20739;SDS011;10530;49.968;19.844;2023-04-24T10:42:23;7.45;;;3.92;;
20739;SDS011;10530;49.968;19.844;2023-04-24T10:47:29;6.70;;;3.87;;
20739;SDS011;10530;49.968;19.844;2023-04-24T10:52:45;7.53;;;3.90;;
20739;SDS011;10530;49.968;19.844;2023-04-24T10:58:01;6.68;;;3.88;;
20739;SDS011;10530;49.968;19.844;2023-04-24T11:03:06;6.38;;;3.55;;
20739;SDS011;10530;49.968;19.844;2023-04-24T11:08:28;6.15;;;3.88;;
20739;SDS011;10530;49.968;19.844;2023-04-24T11:19:04;5.72;;;3.60;;
20739;SDS011;10530;49.968;19.844;2023-04-24T11:24:24;7.35;;;3.70;;
20739;SDS011;10530;49.968;19.844;2023-04-24T11:29:40;7.43;;;3.70;;
20739;SDS011;10530;49.968;19.844;2023-04-24T11:34:46;5.55;;;3.17;;
20739;SDS011;10530;49.968;19.844;2023-04-24T11:40:10;6.10;;;3.60;;
20739;SDS011;10530;49.968;19.844;2023-04-24T11:45:15;6.28;;;3.50;;
20739;SDS011;10530;49.968;19.844;2023-04-24T11:50:25;7.05;;;3.20;;
20739;SDS011;10530;49.968;19.844;2023-04-24T11:55:29;5.57;;;3.38;;
20739;SDS011;10530;49.968;19.844;2023-04-24T12:00:32;5.80;;;3.13;;
20739;SDS011;10530;49.968;19.844;2023-04-24T12:05:36;5.97;;;3.30;;
20739;SDS011;10530;49.968;19.844;2023-04-24T12:10:41;7.25;;;4.47;;
20739;SDS011;10530;49.968;19.844;2023-04-24T12:15:44;7.40;;;3.67;;
20739;SDS011;10530;49.968;19.844;2023-04-24T12:20:47;8.98;;;5.40;;
20739;SDS011;10530;49.968;19.844;2023-04-24T12:25:50;10.85;;;4.47;;
20739;SDS011;10530;49.968;19.844;2023-04-24T12:30:53;8.37;;;4.50;;
20739;SDS011;10530;49.968;19.844;2023-04-24T12:35:57;10.15;;;5.00;;
20739;SDS011;10530;49.968;19.844;2023-04-24T12:41:07;8.32;;;4.38;;
20739;SDS011;10530;49.968;19.844;2023-04-24T12:46:11;5.85;;;3.20;;
20739;SDS011;10530;49.968;19.844;2023-04-24T12:51:16;8.07;;;4.45;;
20739;SDS011;10530;49.968;19.844;2023-04-24T12:56:19;7.43;;;4.13;;
20739;SDS011;10530;49.968;19.844;2023-04-24T13:01:22;7.22;;;3.83;;
20739;SDS011;10530;49.968;19.844;2023-04-24T13:06:25;9.13;;;4.15;;
20739;SDS011;10530;49.968;19.844;2023-04-24T13:11:28;7.00;;;3.65;;
20739;SDS011;10530;49.968;19.844;2023-04-24T13:16:31;9.02;;;3.90;;
20739;SDS011;10530;49.968;19.844;2023-04-24T13:21:34;7.20;;;3.40;;
20739;SDS011;10530;49.968;19.844;2023-04-24T13:26:37;7.60;;;3.70;;
20739;SDS011;10530;49.968;19.844;2023-04-24T13:31:39;5.60;;;3.22;;
20739;SDS011;10530;49.968;19.844;2023-04-24T13:36:42;7.13;;;3.38;;
20739;SDS011;10530;49.968;19.844;2023-04-24T13:41:46;6.82;;;3.35;;
20739;SDS011;10530;49.968;19.844;2023-04-24T13:46:51;5.43;;;2.90;;
20739;SDS011;10530;49.968;19.844;2023-04-24T13:51:56;7.35;;;3.50;;
20739;SDS011;10530;49.968;19.844;2023-04-24T13:56:59;6.88;;;3.33;;
20739;SDS011;10530;49.968;19.844;2023-04-24T14:02:03;7.18;;;3.70;;
20739;SDS011;10530;49.968;19.844;2023-04-24T14:07:06;5.47;;;3.13;;
20739;SDS011;10530;49.968;19.844;2023-04-24T14:12:10;6.43;;;3.37;;
20739;SDS011;10530;49.968;19.844;2023-04-24T14:17:12;4.82;;;2.50;;
20739;SDS011;10530;49.968;19.844;2023-04-24T14:22:15;4.82;;;2.30;;
20739;SDS011;10530;49.968;19.844;2023-04-24T14:27:18;4.38;;;2.22;;
20739;SDS011;10530;49.968;19.844;2023-04-24T14:32:21;4.35;;;2.53;;
20739;SDS011;10530;49.968;19.844;2023-04-24T14:37:24;4.90;;;2.57;;
20739;SDS011;10530;49.968;19.844;2023-04-24T14:42:27;5.43;;;2.47;;
20739;SDS011;10530;49.968;19.844;2023-04-24T14:47:30;5.30;;;1.80;;
20739;SDS011;10530;49.968;19.844;2023-04-24T14:52:33;3.72;;;1.55;;
20739;SDS011;10530;49.968;19.844;2023-04-24T14:57:38;3.97;;;1.67;;
20739;SDS011;10530;49.968;19.844;2023-04-24T15:02:41;4.17;;;1.53;;
20739;SDS011;10530;49.968;19.844;2023-04-24T15:07:46;4.88;;;1.75;;
20739;SDS011;10530;49.968;19.844;2023-04-24T15:12:49;5.30;;;2.22;;
20739;SDS011;10530;49.968;19.844;2023-04-24T15:17:52;6.82;;;1.88;;
20739;SDS011;10530;49.968;19.844;2023-04-24T15:22:55;5.57;;;2.47;;
20739;SDS011;10530;49.968;19.844;2023-04-24T15:27:58;5.20;;;2.53;;
20739;SDS011;10530;49.968;19.844;2023-04-24T15:33:02;6.78;;;2.83;;
20739;SDS011;10530;49.968;19.844;2023-04-24T15:38:05;4.43;;;1.92;;
20739;SDS011;10530;49.968;19.844;2023-04-24T15:43:08;5.70;;;2.30;;
20739;SDS011;10530;49.968;19.844;2023-04-24T15:48:11;5.95;;;2.00;;
20739;SDS011;10530;49.968;19.844;2023-04-24T15:53:14;5.07;;;1.90;;
20739;SDS011;10530;49.968;19.844;2023-04-24T15:58:23;5.40;;;2.20;;
20739;SDS011;10530;49.968;19.844;2023-04-24T16:03:26;4.68;;;2.30;;
20739;SDS011;10530;49.968;19.844;2023-04-24T16:08:29;4.82;;;1.90;;
20739;SDS011;10530;49.968;19.844;2023-04-24T16:13:32;3.38;;;1.40;;
20739;SDS011;10530;49.968;19.844;2023-04-24T16:18:35;4.27;;;1.63;;
20739;SDS011;10530;49.968;19.844;2023-04-24T16:23:38;4.60;;;2.00;;
20739;SDS011;10530;49.968;19.844;2023-04-24T16:28:41;5.57;;;2.10;;
20739;SDS011;10530;49.968;19.844;2023-04-24T16:33:44;5.82;;;2.40;;
20739;SDS011;10530;49.968;19.844;2023-04-24T16:38:47;5.53;;;2.53;;
20739;SDS011;10530;49.968;19.844;2023-04-24T16:43:50;5.40;;;2.60;;
20739;SDS011;10530;49.968;19.844;2023-04-24T16:48:55;5.53;;;2.83;;
20739;SDS011;10530;49.968;19.844;2023-04-24T16:53:59;6.47;;;2.95;;
20739;SDS011;10530;49.968;19.844;2023-04-24T16:59:01;7.95;;;3.28;;
20739;SDS011;10530;49.968;19.844;2023-04-24T17:04:04;6.40;;;2.83;;
20739;SDS011;10530;49.968;19.844;2023-04-24T17:09:08;6.30;;;3.27;;
20739;SDS011;10530;49.968;19.844;2023-04-24T17:14:10;7.72;;;2.92;;
20739;SDS011;10530;49.968;19.844;2023-04-24T17:19:13;6.80;;;2.78;;
20739;SDS011;10530;49.968;19.844;2023-04-24T17:24:16;6.88;;;3.28;;
20739;SDS011;10530;49.968;19.844;2023-04-24T17:29:19;6.95;;;3.22;;
20739;SDS011;10530;49.968;19.844;2023-04-24T17:34:21;7.10;;;3.50;;
20739;SDS011;10530;49.968;19.844;2023-04-24T17:39:24;7.50;;;3.25;;
20739;SDS011;10530;49.968;19.844;2023-04-24T17:44:27;6.47;;;3.58;;
20739;SDS011;10530;49.968;19.844;2023-04-24T17:49:30;8.25;;;3.10;;
20739;SDS011;10530;49.968;19.844;2023-04-24T17:54:34;6.43;;;3.45;;
20739;SDS011;10530;49.968;19.844;2023-04-24T17:59:36;9.90;;;3.77;;
20739;SDS011;10530;49.968;19.844;2023-04-24T18:04:39;8.75;;;3.97;;
20739;SDS011;10530;49.968;19.844;2023-04-24T18:09:44;9.07;;;4.00;;
20739;SDS011;10530;49.968;19.844;2023-04-24T18:14:47;10.57;;;4.85;;
20739;SDS011;10530;49.968;19.844;2023-04-24T18:19:53;10.73;;;4.85;;
20739;SDS011;10530;49.968;19.844;2023-04-24T18:24:56;14.00;;;5.80;;
20739;SDS011;10530;49.968;19.844;2023-04-24T18:29:59;12.98;;;5.90;;
20739;SDS011;10530;49.968;19.844;2023-04-24T18:35:02;14.52;;;6.22;;
20739;SDS011;10530;49.968;19.844;2023-04-24T18:40:07;12.32;;;4.90;;
20739;SDS011;10530;49.968;19.844;2023-04-24T18:45:10;10.07;;;4.93;;
20739;SDS011;10530;49.968;19.844;2023-04-24T18:50:16;14.13;;;6.93;;
20739;SDS011;10530;49.968;19.844;2023-04-24T18:55:20;14.13;;;6.03;;
20739;SDS011;10530;49.968;19.844;2023-04-24T19:00:23;13.40;;;5.18;;
20739;SDS011;10530;49.968;19.844;2023-04-24T19:05:25;8.68;;;4.68;;
20739;SDS011;10530;49.968;19.844;2023-04-24T19:10:28;11.02;;;5.22;;
20739;SDS011;10530;49.968;19.844;2023-04-24T19:15:32;12.83;;;5.03;;
20739;SDS011;10530;49.968;19.844;2023-04-24T19:20:35;14.80;;;6.53;;
20739;SDS011;10530;49.968;19.844;2023-04-24T19:25:38;11.27;;;5.70;;
20739;SDS011;10530;49.968;19.844;2023-04-24T19:30:41;11.77;;;4.93;;
20739;SDS011;10530;49.968;19.844;2023-04-24T19:35:43;15.52;;;6.28;;
20739;SDS011;10530;49.968;19.844;2023-04-24T19:40:46;16.27;;;6.70;;
20739;SDS011;10530;49.968;19.844;2023-04-24T19:45:49;14.55;;;6.47;;
20739;SDS011;10530;49.968;19.844;2023-04-24T19:50:52;15.70;;;7.40;;
20739;SDS011;10530;49.968;19.844;2023-04-24T19:55:55;14.48;;;6.70;;
20739;SDS011;10530;49.968;19.844;2023-04-24T20:00:58;13.82;;;6.47;;
20739;SDS011;10530;49.968;19.844;2023-04-24T20:06:02;16.43;;;7.23;;
20739;SDS011;10530;49.968;19.844;2023-04-24T20:11:04;14.90;;;6.82;;
20739;SDS011;10530;49.968;19.844;2023-04-24T20:16:07;12.00;;;6.07;;
20739;SDS011;10530;49.968;19.844;2023-04-24T20:21:12;13.90;;;6.78;;
20739;SDS011;10530;49.968;19.844;2023-04-24T20:26:15;13.32;;;6.10;;
20739;SDS011;10530;49.968;19.844;2023-04-24T20:31:17;12.43;;;5.87;;
20739;SDS011;10530;49.968;19.844;2023-04-24T20:36:20;10.85;;;5.82;;
20739;SDS011;10530;49.968;19.844;2023-04-24T20:41:23;9.88;;;5.00;;
20739;SDS011;10530;49.968;19.844;2023-04-24T20:46:27;11.90;;;5.32;;
20739;SDS011;10530;49.968;19.844;2023-04-24T20:51:30;12.02;;;5.50;;
20739;SDS011;10530;49.968;19.844;2023-04-24T20:56:33;11.93;;;5.97;;
20739;SDS011;10530;49.968;19.844;2023-04-24T21:01:36;12.57;;;5.88;;
20739;SDS011;10530;49.968;19.844;2023-04-24T21:06:39;12.15;;;5.55;;
20739;SDS011;10530;49.968;19.844;2023-04-24T21:11:42;13.95;;;6.32;;
20739;SDS011;10530;49.968;19.844;2023-04-24T21:16:44;17.08;;;7.10;;
20739;SDS011;10530;49.968;19.844;2023-04-24T21:21:47;16.47;;;7.20;;
20739;SDS011;10530;49.968;19.844;2023-04-24T21:26:50;16.30;;;7.50;;
20739;SDS011;10530;49.968;19.844;2023-04-24T21:31:53;23.13;;;9.57;;
20739;SDS011;10530;49.968;19.844;2023-04-24T21:36:56;21.95;;;9.63;;
20739;SDS011;10530;49.968;19.844;2023-04-24T21:41:58;22.60;;;9.23;;
20739;SDS011;10530;49.968;19.844;2023-04-24T21:47:01;21.17;;;9.23;;
20739;SDS011;10530;49.968;19.844;2023-04-24T21:52:04;22.80;;;9.75;;
20739;SDS011;10530;49.968;19.844;2023-04-24T21:57:07;24.13;;;9.80;;
20739;SDS011;10530;49.968;19.844;2023-04-24T22:02:09;20.77;;;9.73;;
20739;SDS011;10530;49.968;19.844;2023-04-24T22:07:13;22.13;;;9.77;;
20739;SDS011;10530;49.968;19.844;2023-04-24T22:12:16;23.30;;;9.37;;
20739;SDS011;10530;49.968;19.844;2023-04-24T22:17:19;23.30;;;11.05;;
20739;SDS011;10530;49.968;19.844;2023-04-24T22:22:22;24.50;;;9.25;;
20739;SDS011;10530;49.968;19.844;2023-04-24T22:27:25;23.65;;;8.70;;
20739;SDS011;10530;49.968;19.844;2023-04-24T22:32:28;18.90;;;7.53;;
20739;SDS011;10530;49.968;19.844;2023-04-24T22:37:33;14.07;;;6.00;;
20739;SDS011;10530;49.968;19.844;2023-04-24T22:42:36;17.17;;;6.75;;
20739;SDS011;10530;49.968;19.844;2023-04-24T22:47:40;11.90;;;4.75;;
20739;SDS011;10530;49.968;19.844;2023-04-24T22:52:43;10.27;;;4.32;;
20739;SDS011;10530;49.968;19.844;2023-04-24T22:57:47;11.18;;;4.07;;
20739;SDS011;10530;49.968;19.844;2023-04-24T23:02:50;13.90;;;5.60;;
20739;SDS011;10530;49.968;19.844;2023-04-24T23:07:54;13.57;;;5.43;;
20739;SDS011;10530;49.968;19.844;2023-04-24T23:12:56;12.48;;;5.28;;
20739;SDS011;10530;49.968;19.844;2023-04-24T23:17:59;13.38;;;5.80;;
20739;SDS011;10530;49.968;19.844;2023-04-24T23:23:02;14.07;;;5.85;;
20739;SDS011;10530;49.968;19.844;2023-04-24T23:28:05;14.27;;;5.63;;
20739;SDS011;10530;49.968;19.844;2023-04-24T23:33:08;15.43;;;6.70;;
20739;SDS011;10530;49.968;19.844;2023-04-24T23:38:11;14.85;;;6.47;;
20739;SDS011;10530;49.968;19.844;2023-04-24T23:43:13;11.35;;;4.90;;
20739;SDS011;10530;49.968;19.844;2023-04-24T23:48:16;9.98;;;4.70;;
20739;SDS011;10530;49.968;19.844;2023-04-24T23:53:19;9.50;;;3.40;;
20739;SDS011;10530;49.968;19.844;2023-04-24T23:58:22;6.93;;;2.80;;
